createdAt,value
2023-04-04T00:02:05.414Z,77017.63
2023-04-04T00:12:07.729Z,77045.97
2023-04-04T00:22:13.930Z,77062.16
2023-04-04T00:32:20.183Z,77086.47
2023-04-04T00:42:22.734Z,77102.66
2023-04-04T00:52:25.293Z,77112.78
2023-04-04T01:02:27.898Z,77122.91
2023-04-04T01:12:34.112Z,77124.94
2023-04-04T01:22:39.863Z,77122.91
2023-04-04T01:32:56.063Z,77131.00
2023-04-04T01:43:01.402Z,77131.00
2023-04-04T01:53:06.845Z,77169.47
2023-04-04T02:03:09.716Z,77155.28
2023-04-04T02:13:18.884Z,77153.28
2023-04-04T02:23:24.226Z,77167.44
2023-04-04T02:33:29.354Z,77183.63
2023-04-04T02:43:34.332Z,77183.63
2023-04-04T02:53:41.700Z,77191.72
2023-04-04T03:03:57.046Z,77193.75
2023-04-04T03:14:03.050Z,77205.91
2023-04-04T03:24:10.768Z,77216.03
2023-04-04T03:34:16.027Z,77214.00
2023-04-04T03:44:18.681Z,77222.09
2023-04-04T03:54:23.317Z,77218.06
2023-04-04T04:04:27.150Z,77228.19
2023-04-04T04:14:35.338Z,77240.31
2023-04-04T04:24:41.152Z,77183.63
2023-04-04T04:34:47.563Z,77090.50
2023-04-04T04:44:50.365Z,76993.34
2023-04-04T04:54:56.207Z,76849.59
2023-04-04T05:05:04.492Z,76786.84
2023-04-04T05:15:14.476Z,76703.84
2023-04-04T05:25:19.881Z,76669.44
2023-04-04T05:35:27.218Z,76572.28
2023-04-04T05:45:34.389Z,76521.66
2023-04-04T05:56:41.423Z,76444.75
2023-04-04T06:06:19.570Z,76365.81
2023-04-04T06:16:26.993Z,76365.81
2023-04-04T06:26:32.116Z,76315.19
2023-04-04T06:36:41.397Z,76250.44
2023-04-04T06:46:43.899Z,76260.56
2023-04-04T06:56:49.298Z,76211.97
2023-04-04T07:06:54.037Z,76309.13
2023-04-04T07:16:59.266Z,76426.53
2023-04-04T07:27:08.008Z,76418.44
2023-04-04T07:37:10.342Z,76406.28
2023-04-04T07:47:13.624Z,76422.47
2023-04-04T07:57:22.013Z,76481.19
2023-04-04T08:07:27.574Z,76414.38
2023-04-04T08:17:37.215Z,76317.22
2023-04-04T08:27:46.319Z,76313.19
2023-04-04T08:37:52.374Z,76361.75
2023-04-04T08:47:55.925Z,76333.41
2023-04-04T08:58:00.054Z,76373.91
2023-04-04T09:08:07.182Z,76343.53
2023-04-04T09:18:09.406Z,76240.31
2023-04-04T09:28:16.403Z,76260.56
2023-04-04T09:38:19.589Z,76315.19
2023-04-04T09:48:31.314Z,76286.88
2023-04-04T09:58:36.717Z,76319.25
2023-04-04T10:08:47.372Z,76390.09
2023-04-04T10:18:52.874Z,76359.72
2023-04-04T10:29:00.870Z,76327.34
2023-04-04T10:39:19.187Z,76377.94
2023-04-04T10:49:23.200Z,76418.44
2023-04-04T10:59:26.895Z,76428.56
2023-04-04T11:09:57.555Z,76467.00
2023-04-04T11:20:02.545Z,76408.31
2023-04-04T11:30:14.519Z,76365.81
2023-04-04T11:40:17.106Z,76448.78
2023-04-04T11:50:23.550Z,76487.25
2023-04-04T12:00:32.840Z,76418.44
2023-04-04T12:10:39.632Z,76402.25
2023-04-04T12:20:42.588Z,76552.03
2023-04-04T12:30:47.437Z,76547.97
2023-04-04T12:40:51.830Z,76517.63
2023-04-04T12:50:57.020Z,76562.16
2023-04-04T13:01:00.878Z,76515.59
2023-04-04T13:11:07.154Z,76495.34
2023-04-04T13:21:14.129Z,76450.81
2023-04-04T13:31:18.726Z,76499.41
2023-04-04T13:41:21.330Z,76442.72
2023-04-04T13:51:24.823Z,76436.66
2023-04-04T14:01:33.061Z,76442.72
2023-04-04T14:11:38.321Z,76418.44
2023-04-04T14:21:44.351Z,76379.97
2023-04-04T14:31:49.122Z,76400.22
2023-04-04T14:41:51.496Z,76375.94
2023-04-04T14:51:54.834Z,76402.25
2023-04-04T15:02:00.493Z,76384.03
2023-04-04T15:12:03.317Z,76396.16
2023-04-04T15:22:05.655Z,76410.34
2023-04-04T15:32:07.852Z,76406.28
2023-04-04T15:42:14.252Z,76414.38
2023-04-04T15:52:19.468Z,76404.25
2023-04-04T16:02:22.032Z,76422.47
2023-04-04T16:12:25.418Z,76440.69
2023-04-04T16:22:29.006Z,76503.44
2023-04-04T16:32:38.615Z,76523.69
2023-04-04T16:42:41.620Z,76513.56
2023-04-04T16:52:45.991Z,76515.59
2023-04-04T17:02:53.034Z,76501.44
2023-04-04T17:13:01.890Z,76503.44
2023-04-04T17:23:08.573Z,76527.75
2023-04-04T17:33:14.878Z,76507.50
2023-04-04T17:43:19.764Z,76511.53
2023-04-04T17:53:22.619Z,76523.69
2023-04-04T18:03:28.335Z,76523.69
2023-04-04T18:13:33.119Z,76527.75
2023-04-04T18:23:35.851Z,76525.72
2023-04-04T18:33:41.802Z,76531.78
2023-04-04T18:43:47.167Z,76543.94
2023-04-04T18:53:54.305Z,76541.91
2023-04-04T19:03:59.932Z,76568.22
2023-04-04T19:14:03.725Z,76560.13
2023-04-04T19:24:09.176Z,76576.31
2023-04-04T19:34:11.545Z,76600.59
2023-04-04T19:44:21.371Z,76616.81
2023-04-04T19:54:30.761Z,76608.72
2023-04-04T20:04:34.117Z,76637.03
2023-04-04T20:14:39.532Z,76697.78
2023-04-04T20:24:47.323Z,76732.19
2023-04-04T20:34:51.155Z,76750.41
2023-04-04T20:45:04.349Z,76742.31
2023-04-04T20:55:12.321Z,76740.28
2023-04-04T21:05:31.874Z,76740.28
2023-04-04T21:15:34.388Z,76740.28
2023-04-04T21:25:46.999Z,76653.25
2023-04-04T21:35:54.150Z,76691.69
2023-04-04T21:45:58.887Z,76718.03
2023-04-04T21:56:06.188Z,76754.47
2023-04-04T22:06:13.628Z,76758.50
2023-04-04T22:16:22.255Z,76760.53
2023-04-04T22:26:32.721Z,76776.72
2023-04-04T22:36:41.259Z,76772.69
2023-04-04T22:46:44.319Z,76786.84
2023-04-04T22:56:51.883Z,76790.91
2023-04-04T23:06:56.290Z,76786.84
2023-04-04T23:17:06.421Z,76794.94
2023-04-04T23:27:08.572Z,76803.03
2023-04-04T23:37:13.024Z,76803.03
2023-04-04T23:47:16.541Z,76803.03
2023-04-04T23:57:21.011Z,76799.00
